createdAt,value
2018-08-28T00:01:24.116Z,19.30
2018-08-28T00:03:53.034Z,19.30
2018-08-28T00:06:21.742Z,19.20
2018-08-28T00:08:50.434Z,19.30
2018-08-28T00:11:18.744Z,19.20
2018-08-28T00:13:47.086Z,19.30
2018-08-28T00:16:15.829Z,19.40
2018-08-28T00:18:44.206Z,19.30
2018-08-28T00:21:12.507Z,19.30
2018-08-28T00:23:41.005Z,19.20
2018-08-28T00:26:09.752Z,19.30
2018-08-28T00:28:38.602Z,19.30
2018-08-28T00:31:06.987Z,19.30
2018-08-28T00:33:35.376Z,19.40
2018-08-28T00:36:03.789Z,19.40
2018-08-28T00:38:32.119Z,19.40
2018-08-28T00:41:00.586Z,19.40
2018-08-28T00:43:28.852Z,19.40
2018-08-28T00:45:57.273Z,19.40
2018-08-28T00:48:25.622Z,19.40
2018-08-28T00:50:53.915Z,19.40
2018-08-28T00:53:22.211Z,19.40
2018-08-28T00:55:50.521Z,19.30
2018-08-28T00:58:18.794Z,19.30
2018-08-28T01:00:47.703Z,19.30
2018-08-28T01:03:16.012Z,19.30
2018-08-28T01:05:44.312Z,19.30
2018-08-28T01:08:12.903Z,19.40
2018-08-28T01:10:41.207Z,19.30
2018-08-28T01:13:09.559Z,19.30
2018-08-28T01:15:37.950Z,19.30
2018-08-28T01:18:06.614Z,19.30
2018-08-28T01:20:34.918Z,19.30
2018-08-28T01:23:03.210Z,19.30
2018-08-28T01:25:31.775Z,19.40
2018-08-28T01:28:00.089Z,19.40
2018-08-28T01:30:35.342Z,19.40
2018-08-28T01:33:05.355Z,19.40
2018-08-28T01:35:34.725Z,19.40
2018-08-28T01:38:03.370Z,19.30
2018-08-28T01:40:32.614Z,19.30
2018-08-28T01:43:01.218Z,19.30
2018-08-28T01:45:30.339Z,19.30
2018-08-28T01:47:59.253Z,19.30
2018-08-28T01:50:27.614Z,19.30
2018-08-28T01:52:56.045Z,19.30
2018-08-28T01:55:24.360Z,19.30
2018-08-28T01:57:52.678Z,19.30
2018-08-28T02:00:21.084Z,19.30
2018-08-28T02:02:49.862Z,19.30
2018-08-28T02:05:18.205Z,19.30
2018-08-28T02:07:46.535Z,19.30
2018-08-28T02:10:15.384Z,19.30
2018-08-28T02:12:43.698Z,19.30
2018-08-28T02:15:12.035Z,19.30
2018-08-28T02:17:40.338Z,19.40
2018-08-28T02:20:08.836Z,19.40
2018-08-28T02:22:37.510Z,19.40
2018-08-28T02:25:06.807Z,19.40
2018-08-28T02:27:36.725Z,19.30
2018-08-28T02:30:05.151Z,19.40
2018-08-28T02:32:33.489Z,19.40
2018-08-28T02:35:01.755Z,19.40
2018-08-28T02:37:30.069Z,19.40
2018-08-28T02:39:59.091Z,19.40
2018-08-28T02:42:27.392Z,19.30
2018-08-28T02:44:55.719Z,19.40
2018-08-28T02:47:24.001Z,19.40
2018-08-28T02:49:52.283Z,19.40
2018-08-28T02:52:20.639Z,19.40
2018-08-28T02:54:49.132Z,19.40
2018-08-28T02:57:18.162Z,19.40
2018-08-28T02:59:46.532Z,19.50
2018-08-28T03:02:15.712Z,19.40
2018-08-28T03:04:44.072Z,19.40
2018-08-28T03:07:12.396Z,19.40
2018-08-28T03:09:40.714Z,19.40
2018-08-28T03:12:09.080Z,19.30
2018-08-28T03:14:38.386Z,19.30
2018-08-28T03:17:06.764Z,19.30
2018-08-28T03:19:35.058Z,19.30
2018-08-28T03:22:03.352Z,19.20
2018-08-28T03:24:31.670Z,19.20
2018-08-28T03:27:00.171Z,19.20
2018-08-28T03:29:28.526Z,19.30
2018-08-28T03:31:57.498Z,19.20
2018-08-28T03:34:26.340Z,19.30
2018-08-28T03:36:54.841Z,19.30
2018-08-28T03:39:23.448Z,19.30
2018-08-28T03:41:51.876Z,19.30
2018-08-28T03:44:20.476Z,19.30
2018-08-28T03:46:48.925Z,19.30
2018-08-28T03:49:17.343Z,19.30
2018-08-28T03:51:45.716Z,19.20
2018-08-28T03:54:14.694Z,19.20
2018-08-28T03:56:42.990Z,19.20
2018-08-28T03:59:11.413Z,19.20
2018-08-28T04:01:39.697Z,19.20
2018-08-28T04:04:08.286Z,19.20
2018-08-28T04:06:36.853Z,19.20
2018-08-28T04:09:06.612Z,19.20
2018-08-28T04:11:34.883Z,19.30
2018-08-28T04:14:03.246Z,19.30
2018-08-28T04:16:34.195Z,19.30
2018-08-28T04:19:03.187Z,19.40
2018-08-28T04:21:31.526Z,19.40
2018-08-28T04:24:00.814Z,19.30
2018-08-28T04:26:29.168Z,19.30
2018-08-28T04:28:57.509Z,19.30
2018-08-28T04:31:25.816Z,19.30
2018-08-28T04:33:55.884Z,19.30
2018-08-28T04:36:24.230Z,19.30
2018-08-28T04:38:52.539Z,19.40
2018-08-28T04:41:21.259Z,19.30
2018-08-28T04:43:50.455Z,19.20
2018-08-28T04:46:18.829Z,19.30
2018-08-28T04:48:48.243Z,19.30
2018-08-28T04:51:17.079Z,19.30
2018-08-28T04:53:45.434Z,19.30
2018-08-28T04:56:14.252Z,19.30
2018-08-28T04:58:43.098Z,19.30
2018-08-28T05:01:11.445Z,19.30
2018-08-28T05:03:39.866Z,19.40
2018-08-28T05:06:09.341Z,19.40
2018-08-28T05:08:37.843Z,19.40
2018-08-28T05:11:06.187Z,19.40
2018-08-28T05:13:40.069Z,19.40
2018-08-28T05:16:09.205Z,19.40
2018-08-28T05:18:37.765Z,19.40
2018-08-28T05:21:06.315Z,19.40
2018-08-28T05:23:35.069Z,19.30
2018-08-28T05:26:04.559Z,19.30
2018-08-28T05:28:32.927Z,19.30
2018-08-28T05:31:02.846Z,19.40
2018-08-28T05:33:31.424Z,19.40
2018-08-28T05:36:00.062Z,19.40
2018-08-28T05:38:28.858Z,19.40
2018-08-28T05:40:58.768Z,19.40
2018-08-28T05:43:27.465Z,19.30
2018-08-28T05:45:56.684Z,19.30
2018-08-28T05:48:25.110Z,19.30
2018-08-28T05:50:53.503Z,19.30
2018-08-28T05:53:21.843Z,19.30
2018-08-28T05:55:50.571Z,19.30
2018-08-28T05:58:19.145Z,19.30
2018-08-28T06:00:47.606Z,19.40
2018-08-28T06:03:16.204Z,19.40
2018-08-28T06:05:45.229Z,19.40
2018-08-28T06:08:13.565Z,19.40
2018-08-28T06:10:42.164Z,19.40
2018-08-28T06:13:11.481Z,19.40
2018-08-28T06:15:39.774Z,19.40
2018-08-28T06:18:09.382Z,19.40
2018-08-28T06:20:38.489Z,19.50
2018-08-28T06:23:06.957Z,19.50
2018-08-28T06:25:35.326Z,19.40
2018-08-28T06:28:04.245Z,19.50
2018-08-28T06:30:33.325Z,19.50
2018-08-28T06:33:05.608Z,19.60
2018-08-28T06:35:34.552Z,19.50
2018-08-28T06:38:07.560Z,19.40
2018-08-28T06:40:36.786Z,19.30
2018-08-28T06:43:06.191Z,19.50
2018-08-28T06:45:34.814Z,19.40
2018-08-28T06:48:03.839Z,19.40
2018-08-28T06:50:32.487Z,19.50
2018-08-28T06:53:00.941Z,19.50
2018-08-28T06:55:30.256Z,19.50
2018-08-28T06:57:58.932Z,19.60
2018-08-28T07:00:28.024Z,19.60
2018-08-28T07:02:56.582Z,19.70
2018-08-28T07:05:26.284Z,19.70
2018-08-28T07:07:55.737Z,19.70
2018-08-28T07:10:24.924Z,19.80
2018-08-28T07:12:53.203Z,19.80
2018-08-28T07:15:21.864Z,19.80
2018-08-28T07:17:51.325Z,19.90
2018-08-28T07:20:24.560Z,19.90
2018-08-28T07:22:52.903Z,20.00
2018-08-28T07:25:22.479Z,20.10
2018-08-28T07:27:50.787Z,20.10
2018-08-28T07:30:19.095Z,20.10
2018-08-28T07:32:48.280Z,20.10
2018-08-28T07:35:17.498Z,20.20
2018-08-28T07:37:46.102Z,20.20
2018-08-28T07:40:15.012Z,20.20
2018-08-28T07:42:44.374Z,20.20
2018-08-28T07:45:12.879Z,20.20
2018-08-28T07:47:41.777Z,20.20
2018-08-28T07:50:10.791Z,20.10
2018-08-28T07:52:40.465Z,20.20
2018-08-28T07:55:09.419Z,20.30
2018-08-28T07:57:38.211Z,20.40
2018-08-28T08:00:06.837Z,20.50
2018-08-28T08:02:35.317Z,20.60
2018-08-28T08:05:04.333Z,20.70
2018-08-28T08:07:33.094Z,20.80
2018-08-28T08:10:01.768Z,20.90
2018-08-28T08:12:30.695Z,21.00
2018-08-28T08:15:01.335Z,21.00
2018-08-28T08:17:29.913Z,21.10
2018-08-28T08:19:58.407Z,21.20
2018-08-28T08:22:27.867Z,21.20
2018-08-28T08:24:56.798Z,21.40
2018-08-28T08:27:25.835Z,21.50
2018-08-28T08:29:54.585Z,21.50
2018-08-28T08:32:23.363Z,21.50
2018-08-28T08:34:52.871Z,21.60
2018-08-28T08:37:21.571Z,21.60
2018-08-28T08:39:51.015Z,21.70
2018-08-28T08:42:20.075Z,21.70
2018-08-28T08:44:49.358Z,21.90
2018-08-28T08:47:17.913Z,22.10
2018-08-28T08:49:46.639Z,22.20
2018-08-28T08:52:15.124Z,22.20
2018-08-28T08:54:43.911Z,22.40
2018-08-28T08:57:14.529Z,22.20
2018-08-28T08:59:46.560Z,22.30
2018-08-28T09:02:15.149Z,22.40
2018-08-28T09:39:17.378Z,22.90
2018-08-28T09:59:03.679Z,22.80
2018-08-28T10:18:50.193Z,23.30
2018-08-28T10:21:19.153Z,23.50
2018-08-28T10:23:49.623Z,23.60
2018-08-28T10:26:18.588Z,23.70
2018-08-28T10:28:47.070Z,23.80
2018-08-28T10:31:15.627Z,23.70
2018-08-28T10:33:45.356Z,23.60
2018-08-28T10:36:13.893Z,23.60
2018-08-28T10:38:42.626Z,23.60
2018-08-28T10:41:11.184Z,23.60
2018-08-28T10:43:39.629Z,23.50
2018-08-28T10:46:08.210Z,23.50
2018-08-28T10:48:36.845Z,23.40
2018-08-28T10:51:06.301Z,23.40
2018-08-28T10:53:36.533Z,23.60
2018-08-28T10:56:05.355Z,23.80
2018-08-28T10:58:34.363Z,24.00
2018-08-28T11:01:02.956Z,24.10
2018-08-28T11:03:31.584Z,24.10
2018-08-28T11:06:01.609Z,24.20
2018-08-28T11:08:30.824Z,24.30
2018-08-28T11:10:59.544Z,24.30
2018-08-28T11:13:28.575Z,24.20
2018-08-28T11:16:01.778Z,24.20
2018-08-28T11:18:31.248Z,24.20
2018-08-28T11:21:05.857Z,24.30
2018-08-28T11:23:36.373Z,24.20
2018-08-28T11:26:05.286Z,24.20
2018-08-28T11:28:33.842Z,24.30
2018-08-28T11:31:04.604Z,24.40
2018-08-28T11:33:33.622Z,24.60
2018-08-28T11:36:02.203Z,24.50
2018-08-28T11:38:30.698Z,24.70
2018-08-28T11:40:58.957Z,24.60
2018-08-28T11:43:27.379Z,24.70
2018-08-28T11:45:56.009Z,24.80
2018-08-28T11:48:24.695Z,24.80
2018-08-28T11:50:54.592Z,24.80
2018-08-28T11:53:23.167Z,24.80
2018-08-28T11:55:51.816Z,24.90
2018-08-28T11:58:20.710Z,24.90
2018-08-28T12:00:49.099Z,24.80
2018-08-28T12:03:17.436Z,24.80
2018-08-28T12:05:45.755Z,25.00
2018-08-28T12:08:14.148Z,24.90
2018-08-28T12:10:42.488Z,25.00
2018-08-28T12:13:10.852Z,25.10
2018-08-28T12:15:39.474Z,25.30
2018-08-28T12:18:07.898Z,25.40
2018-08-28T12:20:36.251Z,25.40
2018-08-28T12:23:04.613Z,25.40
2018-08-28T12:25:33.968Z,25.40
2018-08-28T12:28:02.312Z,25.50
2018-08-28T12:30:31.645Z,25.50
2018-08-28T12:33:00.333Z,25.60
2018-08-28T12:35:28.671Z,25.40
2018-08-28T12:37:58.067Z,25.50
2018-08-28T12:40:27.354Z,25.50
2018-08-28T12:42:55.934Z,25.60
2018-08-28T12:45:24.560Z,25.60
2018-08-28T12:47:53.367Z,25.60
2018-08-28T12:50:21.996Z,25.60
2018-08-28T12:52:50.699Z,25.80
2018-08-28T12:55:19.407Z,25.90
2018-08-28T12:57:48.655Z,25.90
2018-08-28T13:00:17.108Z,25.90
2018-08-28T13:02:45.757Z,25.90
2018-08-28T13:05:15.097Z,25.90
2018-08-28T13:07:43.772Z,25.80
2018-08-28T13:10:12.910Z,25.70
2018-08-28T13:12:41.447Z,25.90
2018-08-28T13:15:11.167Z,25.90
2018-08-28T13:17:40.071Z,25.80
2018-08-28T13:20:11.794Z,25.80
2018-08-28T13:22:40.415Z,25.80
2018-08-28T13:25:10.195Z,26.10
2018-08-28T13:27:39.670Z,26.00
2018-08-28T13:30:08.434Z,25.50
2018-08-28T13:32:36.823Z,25.90
2018-08-28T13:35:07.170Z,25.90
2018-08-28T13:37:35.956Z,26.00
2018-08-28T13:40:04.958Z,26.10
2018-08-28T13:42:33.628Z,26.00
2018-08-28T13:45:02.928Z,26.10
2018-08-28T13:47:34.480Z,26.10
2018-08-28T13:50:02.895Z,26.00
2018-08-28T13:52:31.201Z,26.00
2018-08-28T13:54:59.699Z,25.90
2018-08-28T13:57:28.141Z,25.70
2018-08-28T13:59:56.842Z,25.70
2018-08-28T14:02:26.333Z,25.70
2018-08-28T14:04:55.126Z,25.90
2018-08-28T14:07:23.791Z,26.10
2018-08-28T14:09:52.186Z,26.20
2018-08-28T14:12:21.412Z,26.30
2018-08-28T14:14:49.798Z,26.20
2018-08-28T14:17:18.219Z,26.20
2018-08-28T14:19:47.152Z,26.20
2018-08-28T14:22:15.453Z,26.20
2018-08-28T14:24:44.272Z,26.10
2018-08-28T14:27:13.090Z,26.00
2018-08-28T14:29:45.309Z,26.10
2018-08-28T14:32:13.946Z,26.00
2018-08-28T14:34:42.555Z,25.90
2018-08-28T14:37:11.665Z,25.70
2018-08-28T14:39:40.124Z,25.90
2018-08-28T14:42:08.464Z,25.80
2018-08-28T14:44:36.856Z,25.90
2018-08-28T14:47:05.827Z,25.90
2018-08-28T14:49:34.120Z,25.90
2018-08-28T14:52:02.491Z,25.80
2018-08-28T14:54:31.252Z,25.80
2018-08-28T14:56:59.642Z,25.80
2018-08-28T14:59:28.144Z,25.90
2018-08-28T15:01:56.962Z,25.90
2018-08-28T15:04:25.410Z,25.80
2018-08-28T15:06:53.835Z,25.70
2018-08-28T15:09:23.529Z,25.40
2018-08-28T15:11:52.417Z,25.40
2018-08-28T15:14:21.424Z,25.20
2018-08-28T15:16:49.845Z,25.20
2018-08-28T15:19:18.244Z,25.40
2018-08-28T15:21:46.981Z,25.30
2018-08-28T15:24:16.229Z,25.20
2018-08-28T15:26:44.883Z,25.30
2018-08-28T15:29:13.688Z,25.50
2018-08-28T15:31:42.780Z,25.40
2018-08-28T15:34:11.279Z,25.60
2018-08-28T15:36:39.651Z,25.60
2018-08-28T15:39:09.188Z,25.60
2018-08-28T15:41:37.667Z,25.70
2018-08-28T15:44:07.208Z,25.70
2018-08-28T15:46:35.821Z,25.80
2018-08-28T15:49:04.423Z,25.90
2018-08-28T15:51:33.071Z,25.90
2018-08-28T15:54:01.843Z,25.70
2018-08-28T15:56:30.250Z,25.90
2018-08-28T15:58:58.758Z,25.80
2018-08-28T16:01:29.379Z,25.70
2018-08-28T16:03:57.978Z,25.70
2018-08-28T16:06:27.058Z,25.90
2018-08-28T16:08:55.741Z,25.80
2018-08-28T16:11:24.666Z,25.80
2018-08-28T16:13:54.579Z,25.50
2018-08-28T16:16:24.656Z,25.30
2018-08-28T16:18:53.043Z,25.30
2018-08-28T16:21:21.730Z,25.20
2018-08-28T16:23:50.650Z,25.30
2018-08-28T16:26:20.991Z,25.30
2018-08-28T16:28:55.486Z,25.00
2018-08-28T16:34:22.112Z,25.20
2018-08-28T16:36:58.305Z,25.30
2018-08-28T16:39:32.792Z,25.20
2018-08-28T16:42:17.922Z,25.10
2018-08-28T16:44:58.909Z,24.80
2018-08-28T16:47:28.974Z,24.90
2018-08-28T17:13:16.269Z,24.30
2018-08-28T17:15:52.598Z,24.30
2018-08-28T17:18:21.891Z,24.40
2018-08-28T17:20:50.704Z,24.40
2018-08-28T17:23:19.956Z,24.20
2018-08-28T17:25:48.572Z,24.30
2018-08-28T17:28:16.903Z,24.40
2018-08-28T17:30:45.871Z,24.40
2018-08-28T17:33:15.581Z,24.30
2018-08-28T17:35:56.321Z,24.30
2018-08-28T17:38:34.824Z,24.30
2018-08-28T17:41:05.207Z,24.10
2018-08-28T17:43:40.821Z,24.10
2018-08-28T17:46:10.109Z,23.90
2018-08-28T17:48:40.247Z,23.90
2018-08-28T17:51:30.611Z,23.80
2018-08-28T17:53:59.456Z,23.80
2018-08-28T17:56:30.913Z,23.70
2018-08-28T17:59:05.902Z,23.40
2018-08-28T18:01:37.953Z,23.20
2018-08-28T18:04:26.613Z,23.20
2018-08-28T18:07:08.171Z,23.10
2018-08-28T18:27:22.106Z,22.00
2018-08-28T18:30:13.992Z,21.70
2018-08-28T18:32:43.162Z,21.20
2018-08-28T18:35:13.814Z,20.90
2018-08-28T18:54:54.672Z,20.70
2018-08-28T18:57:31.293Z,20.00
2018-08-28T19:00:02.815Z,20.50
2018-08-28T19:05:27.411Z,20.30
2018-08-28T19:08:06.687Z,20.20
2018-08-28T19:16:05.519Z,20.00
2018-08-28T19:18:41.205Z,19.50
2018-08-28T19:21:13.222Z,19.30
2018-08-28T19:42:08.293Z,19.30
2018-08-28T19:44:42.891Z,19.50
2018-08-28T19:47:12.191Z,19.60
2018-08-28T19:49:42.859Z,19.70
2018-08-28T19:52:14.733Z,19.80
2018-08-28T19:54:45.951Z,19.80
2018-08-28T19:59:50.095Z,20.00
2018-08-28T20:02:25.396Z,19.90
2018-08-28T20:04:56.600Z,19.20
2018-08-28T20:07:27.071Z,19.00
2018-08-28T20:09:56.106Z,19.20
2018-08-28T20:12:24.480Z,18.90
2018-08-28T20:17:48.205Z,18.50
2018-08-28T20:20:16.853Z,18.60
2018-08-28T20:22:45.398Z,18.80
2018-08-28T20:25:13.673Z,18.80
2018-08-28T20:33:52.591Z,19.10
2018-08-28T20:36:21.110Z,18.90
2018-08-28T20:38:49.486Z,19.00
2018-08-28T20:41:17.887Z,19.10
2018-08-28T20:43:46.357Z,19.00
2018-08-28T20:46:14.637Z,18.70
2018-08-28T20:48:43.467Z,18.90
2018-08-28T20:51:11.989Z,19.00
2018-08-28T20:53:41.598Z,19.20
2018-08-28T20:56:10.242Z,19.10
2018-08-28T20:58:38.590Z,18.80
2018-08-28T21:01:07.720Z,18.80
2018-08-28T21:03:36.198Z,18.50
2018-08-28T21:06:04.623Z,18.10
2018-08-28T21:08:33.030Z,18.10
2018-08-28T21:11:01.501Z,17.90
2018-08-28T21:13:29.903Z,18.00
2018-08-28T21:15:58.199Z,18.00
2018-08-28T21:18:26.610Z,18.10
2018-08-28T21:20:55.063Z,18.20
2018-08-28T21:23:24.079Z,18.40
2018-08-28T21:25:52.579Z,18.50
2018-08-28T21:28:22.070Z,18.60
2018-08-28T21:30:50.425Z,18.70
2018-08-28T21:33:19.152Z,18.50
2018-08-28T21:35:47.709Z,18.10
2018-08-28T21:38:16.110Z,17.80
2018-08-28T21:40:44.912Z,17.50
2018-08-28T21:43:15.237Z,17.60
2018-08-28T21:45:55.109Z,17.80
2018-08-28T21:48:23.681Z,18.00
2018-08-28T21:50:52.093Z,18.10
2018-08-28T21:53:20.422Z,18.30
2018-08-28T21:55:49.412Z,18.00
2018-08-28T21:58:17.900Z,18.10
2018-08-28T22:00:51.626Z,17.60
2018-08-28T22:03:20.174Z,17.50
2018-08-28T22:05:48.632Z,17.40
2018-08-28T22:08:16.967Z,17.00
2018-08-28T22:10:45.371Z,16.90
2018-08-28T22:13:13.802Z,16.90
2018-08-28T22:15:42.142Z,16.90
2018-08-28T22:18:10.788Z,16.90
2018-08-28T22:20:43.409Z,16.80
2018-08-28T22:23:11.778Z,16.70
2018-08-28T22:25:40.150Z,16.70
2018-08-28T22:28:08.910Z,16.80
2018-08-28T22:30:37.812Z,16.60
2018-08-28T22:33:06.756Z,16.50
2018-08-28T22:35:35.819Z,16.30
2018-08-28T22:38:04.235Z,16.30
2018-08-28T22:40:32.673Z,16.10
2018-08-28T22:43:01.052Z,16.10
2018-08-28T22:45:30.227Z,16.20
2018-08-28T22:47:58.627Z,16.10
2018-08-28T22:50:27.064Z,16.10
2018-08-28T22:52:55.587Z,16.10
2018-08-28T22:55:24.886Z,16.10
2018-08-28T22:57:53.348Z,16.10
2018-08-28T23:00:23.695Z,16.20
2018-08-28T23:02:54.438Z,16.40
2018-08-28T23:05:22.984Z,16.30
2018-08-28T23:07:51.886Z,16.30
2018-08-28T23:10:20.623Z,16.30
2018-08-28T23:12:49.460Z,16.10
2018-08-28T23:15:17.870Z,16.10
2018-08-28T23:17:46.448Z,16.00
2018-08-28T23:20:15.414Z,16.10
2018-08-28T23:22:43.705Z,16.10
2018-08-28T23:25:11.999Z,16.00
2018-08-28T23:27:40.687Z,16.10
2018-08-28T23:30:09.955Z,16.10
2018-08-28T23:32:38.521Z,16.10
2018-08-28T23:35:08.985Z,16.00
2018-08-28T23:37:38.490Z,16.00
2018-08-28T23:40:07.022Z,16.00
2018-08-28T23:42:35.813Z,16.00
2018-08-28T23:45:05.098Z,16.20
2018-08-28T23:47:33.455Z,16.30
2018-08-28T23:50:01.816Z,16.50
2018-08-28T23:52:30.782Z,16.60
2018-08-28T23:54:59.836Z,16.60
2018-08-28T23:57:28.427Z,16.60
2018-08-28T23:59:57.016Z,16.50
